Scotia — MXHR6 — position and weather

sailwx.info

Track history (hours):
 
Tides and Currents Weather Stations Pressure Air Temp Water Temp Dewpoint Dewpoint Depression Visibility Wind Speed Wind Dir Waves Ship Positions

Oceanographic research ship Scotia (UK)

Detailed information on ship capabilities available from University of Delaware's Ocean Information Center.

Last reported at 2017-Jun-22 21:04 UTC. Time now 2017-Jun-23 20:37 UTC.
Position N 58°37' W 002°35'.

Length 68.6 m; beam 15 m; draft 5.6 m.

Type: Other ship. MMSI: 234973000.

Date/timePositionNaut miles runAvg speedWind from/ knotsBaromVisibWave heightAir tempDewpointWater temp
2017-Jun-22 21:04N 58°37' W 002°35'111.7
2017-Jun-22 21:01N 58°37' W 002°36'612.1
2017-Jun-22 20:31N 58°41' W 002°45'612.5
2017-Jun-22 20:00N 58°42' W 002°57'816.6
2017-Jun-22 19:30N 58°43' W 003°13'714.2
2017-Jun-22 19:01N 58°43' W 003°26'713.3
2017-Jun-22 18:30N 58°43' W 003°39'612.6
2017-Jun-22 18:00N 58°43' W 003°51'612.3
2017-Jun-22 17:30N 58°42' W 004°03'612.0
2017-Jun-22 17:00N 58°42' W 004°15'612.0
2017-Jun-22 16:30N 58°42' W 004°26'44 8.7
2017-Jun-22 11:28N 58°12' W 005°27'146 2.9
2017-Jun-20 09:25N 55°52' W 006°44'512.2
2017-Jun-20 09:00N 55°47' W 006°42'612.5
2017-Jun-20 08:31N 55°41' W 006°38'713.4
2017-Jun-20 08:01N 55°36' W 006°30'612.1
2017-Jun-20 07:31N 55°32' W 006°23'611.3
2017-Jun-20 07:01N 55°28' W 006°17'510.3
2017-Jun-20 06:30N 55°26' W 006°08'510.0
2017-Jun-20 06:00N 55°23' W 006°01'4 9.0
2017-Jun-20 05:30N 55°19' W 005°56'4 7.6
2017-Jun-20 05:00N 55°16' W 005°52'4 8.4
2017-Jun-20 04:30N 55°14' W 005°46'5 9.1
2017-Jun-20 04:00N 55°12' W 005°39'13 0.4
2017-Jun-18 15:11N 55°26' W 005°36'21 8.7
2017-Jun-18 12:48N 55°08' W 005°17'2 6.5
2017-Jun-18 12:30N 55°06' W 005°15'0 0.7
2017-Jun-18 11:58N 55°07' W 005°15'12 3.1
2017-Jun-18 08:05N 55°14' W 004°59'3 3.1
2017-Jun-18 07:03N 55°17' W 005°01'9 1.1
2017-Jun-17 22:55N 55°26' W 005°01'0 0.8
2017-Jun-17 22:29N 55°27' W 005°00'15 0.8
2017-Jun-17 02:36N 55°29' W 005°27'6 5.9
2017-Jun-17 01:37N 55°23' W 005°27'1 5.6
2017-Jun-17 01:30N 55°22' W 005°27'9 8.3
2017-Jun-17 00:28N 55°15' W 005°35'511.9
2017-Jun-17 00:00N 55°16' W 005°45'611.7
2017-Jun-16 23:30N 55°20' W 005°52'511.0
2017-Jun-16 23:00N 55°25' W 005°56'510.5
2017-Jun-16 22:30N 55°30' W 006°00'1 1.4
2017-Jun-16 22:00N 55°30' W 005°59'1 2.6
2017-Jun-16 21:30N 55°31' W 005°58'2 4.1
2017-Jun-16 21:00N 55°33' W 005°60'0 0.9
2017-Jun-16 20:30N 55°33' W 006°00'1 1.1
2017-Jun-16 20:01N 55°33' W 006°00'1 2.6
2017-Jun-16 19:30N 55°34' W 005°58'1 2.2
2017-Jun-16 19:01N 55°34' W 005°56'2 2.1
2017-Jun-16 18:10N 55°34' W 005°53'0 2.1
2017-Jun-16 17:59N 55°34' W 005°53'2 3.2
2017-Jun-16 17:19N 55°37' W 005°52'2 5.3
2017-Jun-16 17:01N 55°38' W 005°54'3 5.0
2017-Jun-16 16:30N 55°40' W 005°57'1 1.2
2017-Jun-16 16:01N 55°40' W 005°56'2 4.0
2017-Jun-16 15:30N 55°40' W 005°53'0 0.8
2017-Jun-16 14:55N 55°40' W 005°52'2 3.7
2017-Jun-16 14:30N 55°41' W 005°52'3 2.7
2017-Jun-16 13:30N 55°44' W 005°52'2 3.7
2017-Jun-16 13:00N 55°44' W 005°48'2 2.7
2017-Jun-16 12:22N 55°45' W 005°50'2 4.7
2017-Jun-16 12:00N 55°45' W 005°53'1 1.1
2017-Jun-16 11:13N 55°46' W 005°54'2 7.6
2017-Jun-16 11:00N 55°46' W 005°52'3 4.5
2017-Jun-16 10:20N 55°48' W 005°47'0 1.2
2017-Jun-16 10:00N 55°48' W 005°46'1 2.8
2017-Jun-16 09:29N 55°47' W 005°45'0 0.9
2017-Jun-16 09:00N 55°47' W 005°45'1 2.1
2017-Jun-16 08:21N 55°48' W 005°44'29 3.5
2017-Jun-16 00:03N 56°17' W 005°47'1 9.1
2017-Jun-15 23:59N 56°17' W 005°47'4 8.3
2017-Jun-15 23:30N 56°20' W 005°41'5 9.2
2017-Jun-15 23:00N 56°24' W 005°38'510.1
2017-Jun-15 22:30N 56°29' W 005°40'38 4.0
2017-Jun-15 12:57N 57°05' W 006°06'2 3.9
2017-Jun-15 12:27N 57°06' W 006°04'1 1.1
2017-Jun-15 11:58N 57°07' W 006°04'2 3.7
2017-Jun-15 11:29N 57°06' W 006°07'1 2.2
2017-Jun-15 10:58N 57°06' W 006°09'3 6.0
2017-Jun-15 10:24N 57°03' W 006°13'1 1.4
2017-Jun-15 09:55N 57°03' W 006°14'  
Track history (hours):
 
Tides and Currents Weather Stations Pressure Air Temp Water Temp Dewpoint Dewpoint Depression Visibility Wind Speed Wind Dir Waves Ship Positions

Oceanographic research ship Scotia (UK)

Detailed information on ship capabilities available from University of Delaware's Ocean Information Center.

Last reported at 2017-Jun-22 21:04 UTC. Time now 2017-Jun-23 20:37 UTC.
Position N 58°37' W 002°35'.

Length 68.6 m; beam 15 m; draft 5.6 m.

Type: Other ship. MMSI: 234973000.

Date/timePositionNaut miles runAvg speedWind from/ knotsBaromVisibWave heightAir tempDewpointWater temp
2017-Jun-22 21:04N 58°37' W 002°35'111.7
2017-Jun-22 21:01N 58°37' W 002°36'612.1
2017-Jun-22 20:31N 58°41' W 002°45'612.5
2017-Jun-22 20:00N 58°42' W 002°57'816.6
2017-Jun-22 19:30N 58°43' W 003°13'714.2
2017-Jun-22 19:01N 58°43' W 003°26'713.3
2017-Jun-22 18:30N 58°43' W 003°39'612.6
2017-Jun-22 18:00N 58°43' W 003°51'612.3
2017-Jun-22 17:30N 58°42' W 004°03'612.0
2017-Jun-22 17:00N 58°42' W 004°15'612.0
2017-Jun-22 16:30N 58°42' W 004°26'44 8.7
2017-Jun-22 11:28N 58°12' W 005°27'146 2.9
2017-Jun-20 09:25N 55°52' W 006°44'512.2
2017-Jun-20 09:00N 55°47' W 006°42'612.5
2017-Jun-20 08:31N 55°41' W 006°38'713.4
2017-Jun-20 08:01N 55°36' W 006°30'612.1
2017-Jun-20 07:31N 55°32' W 006°23'611.3
2017-Jun-20 07:01N 55°28' W 006°17'510.3
2017-Jun-20 06:30N 55°26' W 006°08'510.0
2017-Jun-20 06:00N 55°23' W 006°01'4 9.0
2017-Jun-20 05:30N 55°19' W 005°56'4 7.6
2017-Jun-20 05:00N 55°16' W 005°52'4 8.4
2017-Jun-20 04:30N 55°14' W 005°46'5 9.1
2017-Jun-20 04:00N 55°12' W 005°39'13 0.4
2017-Jun-18 15:11N 55°26' W 005°36'21 8.7
2017-Jun-18 12:48N 55°08' W 005°17'2 6.5
2017-Jun-18 12:30N 55°06' W 005°15'0 0.7
2017-Jun-18 11:58N 55°07' W 005°15'12 3.1
2017-Jun-18 08:05N 55°14' W 004°59'3 3.1
2017-Jun-18 07:03N 55°17' W 005°01'9 1.1
2017-Jun-17 22:55N 55°26' W 005°01'0 0.8
2017-Jun-17 22:29N 55°27' W 005°00'15 0.8
2017-Jun-17 02:36N 55°29' W 005°27'6 5.9
2017-Jun-17 01:37N 55°23' W 005°27'1 5.6
2017-Jun-17 01:30N 55°22' W 005°27'9 8.3
2017-Jun-17 00:28N 55°15' W 005°35'511.9
2017-Jun-17 00:00N 55°16' W 005°45'611.7
2017-Jun-16 23:30N 55°20' W 005°52'511.0
2017-Jun-16 23:00N 55°25' W 005°56'510.5
2017-Jun-16 22:30N 55°30' W 006°00'1 1.4
2017-Jun-16 22:00N 55°30' W 005°59'1 2.6
2017-Jun-16 21:30N 55°31' W 005°58'2 4.1
2017-Jun-16 21:00N 55°33' W 005°60'0 0.9
2017-Jun-16 20:30N 55°33' W 006°00'1 1.1
2017-Jun-16 20:01N 55°33' W 006°00'1 2.6
2017-Jun-16 19:30N 55°34' W 005°58'1 2.2
2017-Jun-16 19:01N 55°34' W 005°56'2 2.1
2017-Jun-16 18:10N 55°34' W 005°53'0 2.1
2017-Jun-16 17:59N 55°34' W 005°53'2 3.2
2017-Jun-16 17:19N 55°37' W 005°52'2 5.3
2017-Jun-16 17:01N 55°38' W 005°54'3 5.0
2017-Jun-16 16:30N 55°40' W 005°57'1 1.2
2017-Jun-16 16:01N 55°40' W 005°56'2 4.0
2017-Jun-16 15:30N 55°40' W 005°53'0 0.8
2017-Jun-16 14:55N 55°40' W 005°52'2 3.7
2017-Jun-16 14:30N 55°41' W 005°52'3 2.7
2017-Jun-16 13:30N 55°44' W 005°52'2 3.7
2017-Jun-16 13:00N 55°44' W 005°48'2 2.7
2017-Jun-16 12:22N 55°45' W 005°50'2 4.7
2017-Jun-16 12:00N 55°45' W 005°53'1 1.1
2017-Jun-16 11:13N 55°46' W 005°54'2 7.6
2017-Jun-16 11:00N 55°46' W 005°52'3 4.5
2017-Jun-16 10:20N 55°48' W 005°47'0 1.2
2017-Jun-16 10:00N 55°48' W 005°46'1 2.8
2017-Jun-16 09:29N 55°47' W 005°45'0 0.9
2017-Jun-16 09:00N 55°47' W 005°45'1 2.1
2017-Jun-16 08:21N 55°48' W 005°44'29 3.5
2017-Jun-16 00:03N 56°17' W 005°47'1 9.1
2017-Jun-15 23:59N 56°17' W 005°47'4 8.3
2017-Jun-15 23:30N 56°20' W 005°41'5 9.2
2017-Jun-15 23:00N 56°24' W 005°38'510.1
2017-Jun-15 22:30N 56°29' W 005°40'38 4.0
2017-Jun-15 12:57N 57°05' W 006°06'2 3.9
2017-Jun-15 12:27N 57°06' W 006°04'1 1.1
2017-Jun-15 11:58N 57°07' W 006°04'2 3.7
2017-Jun-15 11:29N 57°06' W 006°07'1 2.2
2017-Jun-15 10:58N 57°06' W 006°09'3 6.0
2017-Jun-15 10:24N 57°03' W 006°13'1 1.4
2017-Jun-15 09:55N 57°03' W 006°14'  

Dump ship's entire track history